Time;durP1;ratioP1;P1;durP2;ratioP2;P2;SDS_P1;SDS_P2;PMS_P1;PMS_P2;Temp;Humidity;BMP_temperature;BMP_pressure;BME280_temperature;BME280_humidity;BME280_pressure;Samples;Min_cycle;Max_cycle;Signal;HPM_P1;HPM_P2
2022/05/24 00:02:20;;;;;;;5.65;4.35;;;13.20;99.90;;;;;;5112485;28;20047;-70
2022/05/24 00:04:46;;;;;;;6.72;4.20;;;12.90;99.90;;;;;;5112229;28;20401;-70
2022/05/24 00:07:12;;;;;;;7.55;4.50;;;13.00;99.90;;;;;;5112401;28;20055;-70
2022/05/24 00:09:38;;;;;;;7.15;4.68;;;13.00;99.90;;;;;;5112506;28;20478;-70
2022/05/24 00:12:04;;;;;;;6.40;4.03;;;12.80;99.90;;;;;;5112187;28;20102;-70
2022/05/24 00:17:14;;;;;;;8.48;5.00;;;12.70;99.90;;;;;;5112004;28;20275;-70
2022/05/24 00:19:40;;;;;;;5.40;4.13;;;12.80;99.90;;;;;;5111849;28;20043;-70
2022/05/24 00:22:05;;;;;;;6.45;4.32;;;12.70;99.90;;;;;;5111735;28;20047;-70
2022/05/24 00:24:31;;;;;;;6.45;4.25;;;12.90;99.90;;;;;;5094706;28;20047;-69
2022/05/24 00:26:57;;;;;;;4.28;3.30;;;12.80;99.90;;;;;;5094741;28;20067;-70
2022/05/24 00:29:22;;;;;;;7.18;4.38;;;12.80;99.90;;;;;;5111669;28;20071;-70
2022/05/24 00:31:48;;;;;;;5.05;3.53;;;12.70;99.90;;;;;;5113103;28;20152;-69
2022/05/24 00:34:14;;;;;;;5.65;3.97;;;12.70;99.90;;;;;;5112764;28;20047;-70
2022/05/24 00:36:39;;;;;;;4.30;3.22;;;12.80;99.90;;;;;;5111938;28;20471;-70
2022/05/24 00:39:05;;;;;;;5.43;3.55;;;12.70;99.90;;;;;;5111690;28;20542;-69
2022/05/24 00:41:38;;;;;;;3.80;3.15;;;12.80;99.90;;;;;;5111571;28;20073;-69
2022/05/24 00:44:21;;;;;;;5.25;3.40;;;12.70;99.90;;;;;;5111217;28;20042;-69
2022/05/24 00:46:54;;;;;;;6.28;4.75;;;12.80;99.90;;;;;;5111565;28;20059;-70
2022/05/24 00:49:36;;;;;;;6.50;3.90;;;12.70;99.90;;;;;;5111190;28;20044;-69
2022/05/24 00:52:26;;;;;;;4.32;3.05;;;12.80;99.90;;;;;;5112814;28;20040;-69
2022/05/24 00:54:52;;;;;;;6.55;3.78;;;12.80;99.90;;;;;;5110840;28;20051;-69
2022/05/24 00:57:32;;;;;;;6.95;3.60;;;12.60;99.90;;;;;;5112968;28;20104;-69
2022/05/24 01:00:08;;;;;;;5.72;3.50;;;12.60;99.90;;;;;;5111444;28;20183;-70
2022/05/24 01:02:36;;;;;;;4.60;2.72;;;12.60;99.90;;;;;;5111232;28;20044;-69
2022/05/24 01:05:05;;;;;;;3.92;2.75;;;12.50;99.90;;;;;;5112543;28;20121;-69
2022/05/24 01:07:30;;;;;;;3.63;2.30;;;12.40;99.90;;;;;;5111044;28;20098;-69
2022/05/24 01:10:01;;;;;;;4.47;2.30;;;12.40;99.90;;;;;;5112440;28;20086;-69
2022/05/24 01:12:53;;;;;;;5.20;2.78;;;12.20;99.90;;;;;;5110906;28;20446;-69
2022/05/24 01:15:20;;;;;;;4.30;2.78;;;12.30;99.90;;;;;;5111083;28;20051;-70
2022/05/24 01:17:49;;;;;;;3.42;2.58;;;12.10;99.90;;;;;;5110957;28;20078;-69
2022/05/24 01:20:15;;;;;;;4.85;3.45;;;12.10;99.90;;;;;;5110765;28;20055;-70
2022/05/24 01:22:59;;;;;;;4.78;3.10;;;12.00;99.90;;;;;;5111057;28;20043;-70
2022/05/24 01:25:49;;;;;;;5.00;3.40;;;12.00;99.90;;;;;;5110542;28;20052;-71
2022/05/24 01:28:31;;;;;;;5.20;2.83;;;12.00;99.90;;;;;;5110811;28;20035;-69
2022/05/24 01:30:58;;;;;;;3.20;2.40;;;12.00;99.90;;;;;;5110765;28;20050;-70
2022/05/24 01:36:10;;;;;;;2.80;2.25;;;11.80;99.90;;;;;;5110570;28;20112;-70
2022/05/24 01:38:45;;;;;;;3.63;2.53;;;12.00;99.90;;;;;;5112134;28;20039;-70
2022/05/24 01:41:20;;;;;;;3.67;2.33;;;11.70;99.90;;;;;;5110752;28;20044;-71
2022/05/24 01:43:49;;;;;;;5.25;2.70;;;11.90;99.90;;;;;;5110044;28;20047;-70
2022/05/24 01:46:18;;;;;;;3.17;2.05;;;11.80;99.90;;;;;;5110158;28;20135;-70
2022/05/24 01:48:49;;;;;;;2.80;2.00;;;11.70;99.90;;;;;;5110605;28;20078;-70
2022/05/24 01:51:19;;;;;;;2.63;2.20;;;11.80;99.90;;;;;;5110436;28;20442;-69
2022/05/24 01:53:49;;;;;;;3.42;2.50;;;11.50;99.90;;;;;;5111128;28;20043;-71
2022/05/24 01:56:20;;;;;;;3.92;2.90;;;11.50;99.90;;;;;;5110477;28;20122;-70
2022/05/24 01:58:50;;;;;;;3.22;2.55;;;11.50;99.90;;;;;;5110090;28;20052;-69
2022/05/24 02:01:26;;;;;;;3.42;2.65;;;11.60;99.90;;;;;;5110072;28;20036;-70
2022/05/24 02:03:51;;;;;;;3.43;2.40;;;11.60;99.90;;;;;;5110427;28;20043;-70
2022/05/24 02:06:26;;;;;;;3.45;2.47;;;11.70;99.90;;;;;;5091740;28;20180;-70
2022/05/24 02:08:53;;;;;;;3.10;2.00;;;11.60;99.90;;;;;;5110171;28;20471;-70
2022/05/24 02:11:23;;;;;;;2.90;2.10;;;11.40;99.90;;;;;;5109847;28;20047;-70
2022/05/24 02:13:53;;;;;;;2.65;1.60;;;11.60;99.90;;;;;;5110077;28;20498;-70
2022/05/24 02:16:22;;;;;;;2.05;1.67;;;11.50;99.90;;;;;;5111477;28;20044;-70
2022/05/24 02:18:52;;;;;;;2.03;1.63;;;11.50;99.90;;;;;;5110157;28;20055;-71
2022/05/24 02:21:18;;;;;;;2.95;2.60;;;11.60;99.90;;;;;;5109770;28;20043;-71
2022/05/24 02:23:46;;;;;;;3.30;2.10;;;11.70;99.90;;;;;;5101554;28;20126;-71
2022/05/24 02:26:14;;;;;;;2.83;1.85;;;11.70;99.90;;;;;;5091004;28;20036;-70
2022/05/24 02:28:40;;;;;;;1.70;1.60;;;11.70;99.90;;;;;;5072889;28;20052;-71
2022/05/24 02:31:13;;;;;;;2.50;1.55;;;11.90;99.90;;;;;;5089410;28;20039;-71
2022/05/24 02:33:40;;;;;;;1.38;1.27;;;11.80;99.90;;;;;;5089980;28;20424;-71
2022/05/24 02:36:07;;;;;;;1.83;1.52;;;11.80;99.90;;;;;;5090758;28;20044;-70
2022/05/24 02:38:33;;;;;;;2.13;1.40;;;12.00;99.90;;;;;;5090221;28;20399;-71
2022/05/24 02:43:43;;;;;;;2.45;1.50;;;11.90;99.90;;;;;;5089788;28;20054;-70
2022/05/24 02:46:09;;;;;;;1.83;1.50;;;12.00;99.90;;;;;;5090479;28;20048;-70
2022/05/24 02:48:36;;;;;;;2.05;1.60;;;11.90;99.90;;;;;;5073503;28;20052;-70
2022/05/24 02:51:02;;;;;;;2.88;2.15;;;11.90;99.90;;;;;;5090218;28;20052;-70
2022/05/24 02:53:27;;;;;;;2.72;1.73;;;11.90;99.90;;;;;;5090132;28;20486;-70
2022/05/24 02:55:53;;;;;;;2.47;1.98;;;12.20;99.90;;;;;;5089969;28;20056;-70
2022/05/24 02:58:19;;;;;;;3.22;2.55;;;12.10;99.90;;;;;;5089377;28;20051;-70
2022/05/24 03:00:44;;;;;;;4.13;2.90;;;12.30;99.90;;;;;;5089693;28;20485;-70
2022/05/24 03:03:10;;;;;;;2.97;2.53;;;12.20;99.90;;;;;;5090828;28;20048;-70
2022/05/24 03:05:36;;;;;;;2.92;2.38;;;12.20;99.90;;;;;;5093379;28;20048;-70
2022/05/24 03:10:47;;;;;;;2.92;2.50;;;12.20;99.90;;;;;;5093793;28;20396;-70
2022/05/24 03:15:57;;;;;;;3.40;2.75;;;12.30;99.90;;;;;;5092552;28;20044;-71
2022/05/24 03:18:24;;;;;;;3.05;2.70;;;12.40;99.90;;;;;;5092928;28;20052;-71
2022/05/24 03:20:49;;;;;;;4.15;3.20;;;12.40;99.90;;;;;;5092964;28;20047;-71
2022/05/24 03:23:16;;;;;;;3.58;3.20;;;12.50;99.90;;;;;;5092812;28;20057;-71
2022/05/24 03:25:42;;;;;;;4.43;3.83;;;12.60;99.90;;;;;;5093788;28;20436;-71
2022/05/24 03:28:08;;;;;;;5.93;4.65;;;12.60;99.90;;;;;;5092948;28;20063;-71
2022/05/24 03:30:42;;;;;;;6.10;4.70;;;12.70;99.90;;;;;;5093625;28;20472;-71
2022/05/24 03:33:08;;;;;;;5.97;5.22;;;12.70;99.90;;;;;;5092720;28;20048;-71
2022/05/24 03:35:33;;;;;;;6.68;5.70;;;12.70;99.90;;;;;;5093449;28;20040;-71
2022/05/24 03:37:59;;;;;;;10.25;7.47;;;12.80;99.90;;;;;;5092183;28;20074;-71
2022/05/24 03:40:25;;;;;;;11.20;7.63;;;12.60;99.90;;;;;;5093339;28;20051;-71
2022/05/24 03:42:52;;;;;;;8.73;7.32;;;12.80;99.90;;;;;;5092306;28;20107;-70
2022/05/24 03:45:18;;;;;;;6.68;5.75;;;12.80;99.90;;;;;;5092160;28;20048;-69
2022/05/24 03:47:44;;;;;;;5.38;4.88;;;12.70;99.90;;;;;;5092038;28;20414;-70
2022/05/24 03:50:11;;;;;;;7.53;5.47;;;12.70;99.90;;;;;;5092323;28;20490;-70
2022/05/24 03:52:36;;;;;;;;;;;12.90;99.90;;;;;;5092582;28;20036;-70
2022/05/24 03:55:03;;;;;;;11.48;9.57;;;12.80;99.90;;;;;;5091815;28;19920;-70
2022/05/24 04:00:15;;;;;;;12.70;10.45;;;13.00;99.90;;;;;;5091398;28;20483;-70
2022/05/24 04:02:41;;;;;;;11.25;9.05;;;13.00;99.90;;;;;;5110578;28;20067;-70
2022/05/24 04:05:08;;;;;;;12.32;9.98;;;13.10;99.90;;;;;;5111186;28;20467;-70
2022/05/24 04:07:33;;;;;;;9.63;8.40;;;13.10;99.90;;;;;;5111765;28;20055;-69
2022/05/24 04:10:03;;;;;;;8.73;7.63;;;13.00;99.90;;;;;;5111856;28;20104;-70
2022/05/24 04:12:28;;;;;;;12.32;10.70;;;13.00;99.90;;;;;;5111948;28;20158;-70
2022/05/24 04:14:55;;;;;;;11.80;9.95;;;13.10;99.90;;;;;;5113603;28;20055;-70
2022/05/24 04:17:20;;;;;;;12.57;10.75;;;13.00;99.90;;;;;;5111503;28;20471;-70
2022/05/24 04:19:46;;;;;;;13.75;10.93;;;13.10;99.90;;;;;;5111575;28;20075;-71
2022/05/24 04:22:12;;;;;;;13.25;10.73;;;13.00;99.90;;;;;;5111731;28;20050;-70
2022/05/24 04:24:38;;;;;;;13.02;11.13;;;13.20;99.90;;;;;;5111615;28;20063;-71
2022/05/24 04:27:07;;;;;;;15.43;12.57;;;13.20;99.90;;;;;;5111285;28;20065;-70
2022/05/24 04:29:33;;;;;;;12.93;10.75;;;13.20;99.90;;;;;;5111455;28;20075;-70
2022/05/24 04:31:59;;;;;;;;;;;13.10;99.90;;;;;;5111954;28;20465;-70
2022/05/24 04:34:25;;;;;;;13.52;9.60;;;13.30;99.90;;;;;;5111042;28;20006;-69
2022/05/24 04:36:50;;;;;;;11.32;9.73;;;13.30;99.90;;;;;;5111014;28;20040;-69
2022/05/24 04:39:17;;;;;;;11.63;8.95;;;13.20;99.90;;;;;;5112417;28;20044;-70
2022/05/24 04:44:27;;;;;;;11.15;8.65;;;13.30;99.90;;;;;;5111024;28;20389;-71
2022/05/24 04:47:08;;;;;;;12.52;9.75;;;13.40;99.90;;;;;;5111239;28;20082;-70
2022/05/24 04:49:50;;;;;;;10.50;7.97;;;13.30;99.90;;;;;;5094199;28;20043;-70
2022/05/24 04:52:17;;;;;;;10.27;7.68;;;13.30;99.90;;;;;;5111066;28;20506;-70
2022/05/24 04:54:44;;;;;;;9.68;7.97;;;13.30;99.90;;;;;;5110756;28;20174;-69
2022/05/24 04:57:10;;;;;;;8.93;7.95;;;13.30;99.90;;;;;;5111037;28;20039;-70
2022/05/24 04:59:37;;;;;;;11.73;7.40;;;13.40;99.90;;;;;;5094375;28;20448;-70
2022/05/24 05:02:04;;;;;;;11.13;8.23;;;13.50;99.90;;;;;;5110937;28;20047;-70
2022/05/24 05:04:29;;;;;;;8.23;6.72;;;13.50;99.90;;;;;;5110740;28;20047;-71
2022/05/24 05:06:55;;;;;;;7.53;5.97;;;13.40;99.90;;;;;;5110628;28;20054;-71
2022/05/24 05:09:21;;;;;;;7.20;5.85;;;13.40;99.90;;;;;;5110777;28;20108;-70
2022/05/24 05:11:47;;;;;;;9.90;6.70;;;13.50;99.90;;;;;;5112320;28;20048;-70
2022/05/24 05:14:13;;;;;;;9.73;7.35;;;13.40;99.90;;;;;;5094326;28;20043;-70
2022/05/24 05:16:39;;;;;;;6.95;5.40;;;13.40;99.90;;;;;;5111116;28;20047;-70
2022/05/24 05:19:07;;;;;;;7.13;5.50;;;13.60;99.90;;;;;;5093992;28;20483;-70
2022/05/24 05:21:35;;;;;;;7.18;5.28;;;13.50;99.90;;;;;;5093797;28;20047;-71
2022/05/24 05:24:02;;;;;;;9.77;8.20;;;13.50;99.90;;;;;;5111697;28;20053;-71
2022/05/24 05:26:29;;;;;;;10.43;7.25;;;13.50;99.90;;;;;;5111566;28;20043;-71
2022/05/24 05:28:54;;;;;;;9.23;6.82;;;13.60;99.90;;;;;;5109733;28;20448;-70
2022/05/24 05:31:26;;;;;;;9.43;7.50;;;13.70;99.90;;;;;;5110204;28;20640;-71
2022/05/24 05:33:53;;;;;;;7.03;5.63;;;13.70;99.90;;;;;;5110502;28;20048;-71
2022/05/24 05:36:19;;;;;;;8.15;5.90;;;13.70;99.90;;;;;;5111689;28;20536;-70
2022/05/24 05:38:46;;;;;;;10.95;7.57;;;13.80;99.90;;;;;;5110151;28;20047;-76
2022/05/24 05:41:26;;;;;;;10.00;8.30;;;13.70;99.90;;;;;;5110063;28;20473;-75
2022/05/24 05:43:51;;;;;;;10.52;6.68;;;13.70;99.90;;;;;;5111105;28;20459;-70
2022/05/24 05:46:18;;;;;;;6.60;5.70;;;13.80;99.90;;;;;;5109848;28;20067;-76
2022/05/24 05:48:44;;;;;;;;;;;13.70;99.90;;;;;;5110655;28;20043;-75
2022/05/24 05:51:12;;;;;;;8.73;7.35;;;13.70;99.90;;;;;;5109802;28;19962;-75
2022/05/24 05:53:38;;;;;;;6.40;5.50;;;13.70;99.90;;;;;;5110899;28;20043;-76
2022/05/24 05:56:07;;;;;;;8.07;6.32;;;13.70;99.90;;;;;;5110084;28;20466;-75
2022/05/24 05:58:33;;;;;;;6.35;5.05;;;13.70;99.90;;;;;;5111812;28;20444;-75
2022/05/24 06:01:00;;;;;;;6.68;5.78;;;13.70;99.90;;;;;;5110224;28;20127;-76
2022/05/24 06:03:26;;;;;;;6.97;4.50;;;13.60;99.90;;;;;;5110066;28;20050;-77
2022/05/24 06:05:54;;;;;;;8.10;6.38;;;13.60;99.90;;;;;;5109845;28;20043;-76
2022/05/24 06:08:20;;;;;;;9.30;5.95;;;13.60;99.90;;;;;;5109627;28;20055;-76
2022/05/24 06:10:45;;;;;;;8.40;6.25;;;13.50;99.90;;;;;;5110073;28;20051;-76
2022/05/24 06:13:11;;;;;;;9.07;7.00;;;13.50;99.90;;;;;;5111862;28;20043;-75
2022/05/24 06:15:37;;;;;;;8.57;6.45;;;13.40;99.90;;;;;;5111584;28;20051;-76
2022/05/24 06:18:04;;;;;;;8.60;6.35;;;13.40;99.90;;;;;;5110173;28;20083;-76
2022/05/24 06:20:32;;;;;;;5.35;4.38;;;13.30;99.90;;;;;;5110212;28;20129;-76
2022/05/24 06:22:58;;;;;;;7.82;5.35;;;13.30;99.90;;;;;;5110165;28;20433;-76
2022/05/24 06:25:28;;;;;;;;;;;13.20;99.90;;;;;;5110685;28;20065;-76
2022/05/24 06:27:54;;;;;;;7.88;5.88;;;13.10;99.90;;;;;;5110119;28;20062;-76
2022/05/24 06:30:20;;;;;;;;;;;13.20;99.90;;;;;;5110533;28;20425;-77
2022/05/24 06:32:48;;;;;;;9.98;5.65;;;13.00;99.90;;;;;;5110084;28;20006;-77
2022/05/24 06:35:14;;;;;;;8.40;6.45;;;13.10;99.90;;;;;;5109924;28;20048;-76
2022/05/24 06:37:41;;;;;;;;;;;13.00;99.90;;;;;;5111803;28;20467;-76
2022/05/24 06:40:08;;;;;;;10.45;7.53;;;13.00;99.90;;;;;;5112089;28;19919;-76
2022/05/24 06:42:34;;;;;;;7.55;6.07;;;13.10;99.90;;;;;;5113958;28;20406;-76
2022/05/24 06:45:01;;;;;;;10.15;7.45;;;13.10;99.90;;;;;;5113979;28;20043;-76
2022/05/24 06:47:27;;;;;;;8.75;6.82;;;13.30;99.90;;;;;;5114099;28;20051;-75
2022/05/24 06:49:55;;;;;;;9.20;6.57;;;13.20;99.90;;;;;;5114026;28;20107;-76
2022/05/24 06:52:22;;;;;;;8.35;5.70;;;13.30;99.90;;;;;;5113941;28;20035;-76
2022/05/24 06:54:47;;;;;;;;;;;13.30;99.90;;;;;;5114005;28;20475;-76
2022/05/24 06:57:13;;;;;;;7.03;5.80;;;13.30;99.90;;;;;;5113432;28;19975;-76
2022/05/24 07:02:26;;;;;;;9.32;6.63;;;13.30;99.90;;;;;;5098594;28;20105;-76
2022/05/24 07:05:00;;;;;;;10.38;7.93;;;13.40;99.90;;;;;;5113947;28;20040;-76
2022/05/24 07:07:27;;;;;;;12.60;9.32;;;13.60;99.90;;;;;;5113569;28;20051;-75
2022/05/24 07:09:53;;;;;;;10.63;7.10;;;13.60;99.90;;;;;;5113026;28;20054;-76
2022/05/24 07:12:20;;;;;;;;;;;13.80;99.90;;;;;;5113215;28;20047;-76
2022/05/24 07:14:46;;;;;;;11.48;8.63;;;13.80;99.90;;;;;;5112765;28;19922;-76
2022/05/24 07:17:12;;;;;;;11.73;8.88;;;14.00;99.90;;;;;;5112754;28;20126;-75
2022/05/24 07:19:38;;;;;;;11.10;8.48;;;13.90;99.90;;;;;;5112924;28;20044;-76
2022/05/24 07:22:05;;;;;;;11.38;8.55;;;14.10;99.90;;;;;;5113786;28;20069;-75
2022/05/24 07:24:32;;;;;;;10.32;7.55;;;14.10;99.90;;;;;;5112905;28;20039;-75
2022/05/24 07:26:57;;;;;;;8.98;5.95;;;14.20;99.90;;;;;;5113243;28;20408;-75
2022/05/24 07:29:24;;;;;;;13.38;6.10;;;14.30;99.90;;;;;;5112917;28;20082;-76
2022/05/24 07:31:50;;;;;;;;;;;14.20;99.90;;;;;;5114049;27;20400;-76
2022/05/24 07:34:16;;;;;;;9.52;5.38;;;14.20;99.90;;;;;;5113769;28;19995;-75
2022/05/24 07:36:41;;;;;;;10.45;5.35;;;14.30;99.90;;;;;;5112716;28;20155;-76
2022/05/24 07:39:08;;;;;;;10.50;5.70;;;14.20;99.90;;;;;;5112325;28;20537;-76
2022/05/24 07:47:06;;;;;;;6.90;3.60;;;13.90;99.90;;;;;;5113864;28;20051;-75
2022/05/24 07:49:33;;;;;;;7.70;3.80;;;13.80;99.90;;;;;;5112778;28;20053;-76
2022/05/24 07:51:59;;;;;;;5.50;2.80;;;13.70;99.90;;;;;;5111450;28;20042;-76
2022/05/24 07:54:25;;;;;;;5.47;2.60;;;13.70;99.90;;;;;;5112594;28;20080;-76
2022/05/24 07:56:50;;;;;;;5.57;3.15;;;13.80;99.90;;;;;;5113932;28;20044;-75
2022/05/24 07:59:17;;;;;;;6.25;2.88;;;13.70;99.90;;;;;;5112710;28;20475;-75
2022/05/24 08:01:43;;;;;;;6.28;3.05;;;13.60;99.90;;;;;;5112823;28;20104;-75
2022/05/24 08:04:09;;;;;;;;;;;13.60;99.90;;;;;;5112644;28;20081;-75
2022/05/24 08:06:36;;;;;;;7.55;3.58;;;13.50;99.90;;;;;;5112362;28;19927;-75
2022/05/24 08:09:02;;;;;;;6.72;3.33;;;13.60;99.90;;;;;;5112175;28;20054;-75
2022/05/24 08:11:28;;;;;;;7.13;3.55;;;13.40;99.90;;;;;;5113950;28;20047;-75
2022/05/24 08:13:54;;;;;;;7.22;3.90;;;13.30;99.90;;;;;;5113604;28;20051;-75
2022/05/24 08:16:20;;;;;;;6.80;4.03;;;13.20;99.90;;;;;;5112183;28;20047;-75
2022/05/24 08:18:46;;;;;;;4.78;3.10;;;13.30;99.90;;;;;;5113467;28;20105;-75
2022/05/24 08:21:11;;;;;;;5.15;3.10;;;13.20;99.90;;;;;;5112142;28;20043;-76
2022/05/24 08:23:37;;;;;;;4.47;2.95;;;13.30;99.90;;;;;;5112648;28;20047;-76
2022/05/24 08:26:03;;;;;;;5.47;3.20;;;13.30;99.90;;;;;;5113490;28;20055;-76
2022/05/24 08:28:28;;;;;;;8.35;3.10;;;13.10;99.90;;;;;;5112051;28;20039;-76
2022/05/24 08:30:54;;;;;;;4.57;2.97;;;13.20;99.90;;;;;;5113439;28;20088;-75
2022/05/24 08:33:22;;;;;;;6.97;4.05;;;13.20;99.90;;;;;;5113418;28;20032;-75
2022/05/24 08:35:48;;;;;;;7.00;3.60;;;13.00;99.90;;;;;;5111947;28;20509;-75
2022/05/24 08:38:14;;;;;;;;;;;13.20;99.90;;;;;;5095470;28;20104;-76
2022/05/24 08:40:43;;;;;;;3.03;2.40;;;13.10;99.90;;;;;;5113722;28;19923;-76
2022/05/24 08:43:27;;;;;;;5.78;2.97;;;13.10;99.90;;;;;;5113424;28;20055;-75
2022/05/24 08:48:44;;;;;;;6.32;3.05;;;13.20;99.90;;;;;;5111518;28;20058;-75
2022/05/24 08:51:13;;;;;;;5.35;3.35;;;13.10;99.90;;;;;;5112921;28;20049;-76
2022/05/24 08:53:45;;;;;;;6.60;4.07;;;13.00;99.90;;;;;;5112880;28;20126;-75
2022/05/24 08:56:17;;;;;;;8.52;5.60;;;13.10;99.90;;;;;;5111465;28;20473;-76
2022/05/24 08:58:50;;;;;;;6.28;4.18;;;13.40;99.90;;;;;;5111376;28;20445;-76
2022/05/24 09:01:32;;;;;;;10.40;6.30;;;13.50;99.90;;;;;;5111245;28;20053;-76
2022/05/24 09:03:59;;;;;;;8.50;5.60;;;13.50;99.90;;;;;;5110874;28;20051;-77
2022/05/24 09:06:51;;;;;;;9.55;5.70;;;13.60;99.90;;;;;;5094069;28;20054;-76
2022/05/24 09:09:22;;;;;;;7.90;5.32;;;13.70;99.90;;;;;;5111088;28;20592;-76
2022/05/24 09:12:18;;;;;;;8.77;6.20;;;13.60;99.90;;;;;;5110964;28;20054;-77
2022/05/24 09:15:06;;;;;;;10.27;7.03;;;13.70;99.90;;;;;;5112486;28;20035;-76
2022/05/24 09:17:58;;;;;;;13.15;8.63;;;13.80;99.90;;;;;;5111039;28;20043;-76
2022/05/24 09:20:29;;;;;;;12.30;8.23;;;13.80;99.90;;;;;;5092156;28;20052;-76
2022/05/24 09:23:03;;;;;;;9.82;6.82;;;14.00;99.90;;;;;;5112200;28;20043;-76
2022/05/24 09:25:29;;;;;;;14.02;8.30;;;14.00;99.90;;;;;;5110582;28;20079;-77
2022/05/24 09:27:55;;;;;;;6.25;3.83;;;13.70;99.90;;;;;;5110661;28;20043;-71
2022/05/24 09:30:23;;;;;;;;;;;13.30;99.90;;;;;;5111443;28;20441;-70
2022/05/24 09:32:49;;;;;;;4.03;1.80;;;13.00;99.90;;;;;;5093747;28;19920;-70
2022/05/24 09:35:20;;;;;;;;;;;12.80;99.90;;;;;;5112339;28;20200;-70
2022/05/24 09:38:04;;;;;;;4.03;1.85;;;12.70;99.90;;;;;;5110793;28;19920;-71
2022/05/24 09:40:42;;;;;;;2.58;1.70;;;12.80;99.90;;;;;;5111054;28;20035;-71
2022/05/24 09:43:18;;;;;;;4.47;2.20;;;13.00;99.90;;;;;;5110612;28;20051;-71
2022/05/24 09:45:52;;;;;;;3.22;1.60;;;12.90;99.90;;;;;;5110203;28;20079;-71
2022/05/24 09:48:24;;;;;;;2.80;1.80;;;13.20;99.90;;;;;;5093285;28;20044;-71
2022/05/24 09:50:52;;;;;;;3.08;1.77;;;13.30;99.90;;;;;;5110436;28;20035;-70
2022/05/24 09:53:26;;;;;;;3.50;1.95;;;13.50;99.90;;;;;;5110233;27;20055;-70
2022/05/24 09:56:17;;;;;;;2.90;1.80;;;13.50;99.90;;;;;;5111655;28;20139;-70
2022/05/24 09:58:57;;;;;;;2.08;1.58;;;13.50;99.90;;;;;;5093358;28;20126;-70
2022/05/24 10:01:40;;;;;;;3.25;1.83;;;13.60;99.90;;;;;;5109602;28;20175;-70
2022/05/24 10:04:14;;;;;;;3.85;1.70;;;13.60;99.90;;;;;;5109921;28;20039;-70
2022/05/24 10:06:41;;;;;;;3.28;1.77;;;13.60;99.90;;;;;;5109822;28;20040;-70
2022/05/24 10:09:18;;;;;;;2.47;1.63;;;13.70;99.90;;;;;;5109639;28;20077;-71
2022/05/24 10:11:52;;;;;;;2.28;1.52;;;14.00;99.90;;;;;;5109805;28;20376;-77
2022/05/24 10:14:27;;;;;;;3.35;1.77;;;14.30;99.90;;;;;;5114139;28;20039;-77
2022/05/24 10:17:27;;;;;;;3.30;1.58;;;14.40;99.90;;;;;;5115226;28;20055;-77
2022/05/24 10:20:27;;;;;;;2.20;1.35;;;14.40;99.90;;;;;;5113804;28;20396;-77
2022/05/24 10:23:06;;;;;;;2.67;1.50;;;14.40;99.90;;;;;;5113733;28;20047;-77
2022/05/24 10:25:49;;;;;;;2.28;1.60;;;14.30;99.90;;;;;;5113796;28;20487;-77
2022/05/24 10:28:38;;;;;;;2.78;1.70;;;14.30;99.90;;;;;;5115643;28;20036;-77
2022/05/24 10:31:46;;;;;;;4.18;1.90;;;14.20;99.90;;;;;;5096623;28;20425;-77
2022/05/24 10:40:23;;;;;;;2.95;1.70;;;14.20;99.90;;;;;;5113742;28;20046;-76
2022/05/24 10:43:30;;;;;;;4.63;1.70;;;14.00;99.90;;;;;;5113924;28;20078;-76
2022/05/24 10:46:10;;;;;;;2.15;1.65;;;13.60;99.90;;;;;;5114924;28;20047;-76
2022/05/24 10:48:44;;;;;;;2.92;1.50;;;13.60;99.90;;;;;;5113573;28;20031;-76
2022/05/24 10:51:23;;;;;;;1.92;1.23;;;13.40;99.90;;;;;;5114238;28;20050;-76
2022/05/24 10:54:11;;;;;;;2.63;1.67;;;13.80;99.90;;;;;;5113559;28;20413;-77
2022/05/24 10:57:00;;;;;;;2.88;1.50;;;14.00;99.90;;;;;;5113624;28;20047;-77
2022/05/24 10:59:37;;;;;;;3.05;1.95;;;14.60;99.90;;;;;;5113432;28;20062;-76
2022/05/24 11:02:18;;;;;;;3.38;1.58;;;14.80;99.90;;;;;;5113862;28;20073;-77
2022/05/24 11:05:06;;;;;;;3.95;2.13;;;15.60;99.90;;;;;;5113012;28;20463;-77
2022/05/24 11:07:34;;;;;;;4.95;1.70;;;15.50;99.90;;;;;;5112921;28;20135;-76
2022/05/24 11:10:24;;;;;;;3.63;1.80;;;15.20;99.90;;;;;;5113142;28;20126;-76
2022/05/24 11:12:52;;;;;;;2.38;1.50;;;15.00;99.90;;;;;;5114249;28;20118;-76
2022/05/24 11:15:21;;;;;;;3.08;1.75;;;15.00;99.90;;;;;;5113508;28;20039;-76
2022/05/24 11:17:50;;;;;;;2.45;1.70;;;14.80;99.90;;;;;;5114771;28;20356;-76
2022/05/24 11:20:23;;;;;;;2.33;1.50;;;14.70;99.90;;;;;;5113172;28;20047;-76
2022/05/24 11:23:15;;;;;;;2.35;1.63;;;14.60;99.90;;;;;;5113224;28;20107;-76
2022/05/24 11:25:49;;;;;;;2.55;1.58;;;14.50;99.90;;;;;;5108184;28;20063;-77
2022/05/24 11:28:32;;;;;;;2.75;1.42;;;14.50;99.90;;;;;;5113314;28;20047;-75
2022/05/24 11:31:41;;;;;;;2.25;1.40;;;14.30;99.90;;;;;;5113328;28;20055;-76
2022/05/24 11:34:32;;;;;;;2.33;1.20;;;14.10;99.90;;;;;;5112886;28;20040;-75
2022/05/24 11:37:06;;;;;;;1.52;0.80;;;13.70;99.90;;;;;;5113007;28;20039;-75
2022/05/24 11:39:44;;;;;;;2.10;0.85;;;13.50;99.90;;;;;;5112541;28;20048;-75
2022/05/24 11:42:34;;;;;;;2.28;0.93;;;13.80;99.90;;;;;;5112845;28;20039;-76
2022/05/24 11:45:20;;;;;;;1.30;1.00;;;14.40;99.90;;;;;;5113938;27;20487;-74
2022/05/24 11:47:46;;;;;;;1.70;1.00;;;14.60;99.90;;;;;;5112477;28;20035;-76
2022/05/24 11:50:30;;;;;;;2.38;1.02;;;15.10;99.90;;;;;;5112491;28;20474;-76
2022/05/24 11:53:29;;;;;;;2.15;1.13;;;15.60;99.90;;;;;;5112081;28;20046;-76
2022/05/24 11:55:55;;;;;;;3.17;1.30;;;15.60;99.90;;;;;;5112469;28;20131;-76
2022/05/24 11:58:21;;;;;;;2.28;1.20;;;15.60;99.90;;;;;;5112322;28;20402;-76
2022/05/24 12:00:57;;;;;;;2.38;1.00;;;15.40;99.90;;;;;;5112389;28;20047;-75
2022/05/24 12:09:27;;;;;;;2.17;1.00;;;15.20;99.90;;;;;;5113062;28;20056;-75
2022/05/24 12:12:15;;;;;;;3.03;1.00;;;15.20;99.90;;;;;;5113277;28;20040;-74
2022/05/24 12:14:41;;;;;;;2.47;0.90;;;14.90;99.90;;;;;;5113153;28;20440;-75
2022/05/24 12:17:14;;;;;;;2.05;0.60;;;15.10;99.90;;;;;;5112258;28;20142;-75
2022/05/24 12:19:42;;;;;;;2.25;0.80;;;14.80;99.90;;;;;;5111655;28;20051;-76
2022/05/24 12:22:22;;;;;;;2.70;0.90;;;14.70;99.90;;;;;;5113206;28;20540;-75
2022/05/24 12:24:51;;;;;;;3.33;0.80;;;14.50;99.90;;;;;;5112737;28;20047;-75
2022/05/24 12:27:35;;;;;;;2.95;0.80;;;15.00;99.90;;;;;;5111617;28;20043;-75
2022/05/24 12:30:20;;;;;;;3.83;0.93;;;15.60;99.90;;;;;;5111767;28;20475;-75
2022/05/24 12:32:46;;;;;;;1.80;0.80;;;15.70;99.90;;;;;;5111838;28;20072;-76
2022/05/24 12:35:14;;;;;;;2.35;0.90;;;15.60;99.90;;;;;;5112927;28;20113;-75
2022/05/24 12:37:50;;;;;;;1.85;0.80;;;15.40;99.90;;;;;;5093317;28;20048;-75
2022/05/24 12:40:22;;;;;;;3.95;0.80;;;15.10;99.90;;;;;;5112849;28;20070;-75
2022/05/24 12:42:50;;;;;;;3.47;1.20;;;14.70;99.90;;;;;;5111492;28;20047;-74
2022/05/24 12:45:41;;;;;;;2.97;0.90;;;14.80;99.90;;;;;;5112666;28;20479;-75
2022/05/24 12:48:23;;;;;;;2.90;0.80;;;15.10;99.90;;;;;;5112487;28;20101;-75
2022/05/24 12:50:49;;;;;;;5.72;1.20;;;15.40;99.90;;;;;;5111406;28;20398;-74
2022/05/24 12:53:22;;;;;;;3.13;0.90;;;15.40;99.90;;;;;;5111280;28;20127;-74
2022/05/24 12:56:01;;;;;;;3.17;0.90;;;15.90;99.90;;;;;;5111967;28;20101;-75
2022/05/24 12:58:39;;;;;;;1.80;0.82;;;16.40;99.90;;;;;;5094262;28;20050;-75
2022/05/24 13:01:26;;;;;;;2.95;1.05;;;16.40;99.90;;;;;;5111412;28;20054;-75
2022/05/24 13:04:24;;;;;;;3.78;0.80;;;16.40;99.90;;;;;;5112449;28;20035;-75
2022/05/24 13:06:54;;;;;;;2.75;0.85;;;16.40;99.90;;;;;;5112914;28;20050;-74
2022/05/24 13:09:32;;;;;;;3.15;1.10;;;16.30;99.90;;;;;;5112262;28;20569;-75
2022/05/24 13:12:09;;;;;;;2.35;0.70;;;16.60;99.90;;;;;;5111164;28;20047;-74
2022/05/24 13:14:49;;;;;;;1.80;0.60;;;16.30;99.90;;;;;;5112415;28;20120;-75
2022/05/24 13:17:20;;;;;;;1.95;0.60;;;16.20;99.90;;;;;;5111081;28;20039;-75
2022/05/24 13:20:03;;;;;;;1.83;0.65;;;16.20;99.90;;;;;;5111092;28;20055;-75
2022/05/24 13:22:54;;;;;;;2.97;0.60;;;16.40;99.90;;;;;;5110784;28;20081;-75
2022/05/24 13:25:26;;;;;;;2.67;0.73;;;16.60;99.90;;;;;;5110697;28;20123;-74
2022/05/24 13:27:58;;;;;;;1.42;0.70;;;16.90;99.90;;;;;;5110953;28;20054;-75
2022/05/24 13:33:33;;;;;;;2.10;0.60;;;17.00;99.90;;;;;;5111135;28;20050;-75
2022/05/24 13:36:18;;;;;;;3.17;0.80;;;16.40;99.90;;;;;;5110606;28;20051;-75
2022/05/24 13:38:46;;;;;;;1.27;0.60;;;16.20;99.90;;;;;;5110757;28;20486;-75
2022/05/24 13:41:25;;;;;;;1.67;0.68;;;16.00;99.90;;;;;;5110840;28;20133;-75
2022/05/24 13:44:19;;;;;;;1.02;0.50;;;15.90;99.90;;;;;;5110740;28;20429;-75
2022/05/24 13:47:05;;;;;;;2.85;0.88;;;15.80;99.90;;;;;;5110467;28;20105;-75
2022/05/24 13:49:45;;;;;;;2.58;0.80;;;15.70;99.90;;;;;;5110039;28;20452;-75
2022/05/24 13:52:28;;;;;;;3.97;0.90;;;15.60;99.90;;;;;;5110396;28;20047;-75
2022/05/24 13:55:19;;;;;;;1.42;0.90;;;15.60;99.90;;;;;;5111690;28;20039;-75
2022/05/24 13:58:00;;;;;;;3.42;1.30;;;15.70;99.90;;;;;;5093225;28;20127;-74